Time;durP1;ratioP1;P1;durP2;ratioP2;P2;SDS_P1;SDS_P2;PMS_P1;PMS_P2;Temp;Humidity;BMP_temperature;BMP_pressure;BME280_temperature;BME280_humidity;BME280_pressure;Samples;Min_cycle;Max_cycle;Signal;HPM_P1;HPM_P2
2023/02/10 00:01:22;;;;;;;15.67;7.53;;;3.60;78.70;;;;;;5104807;28;20188;-67
2023/02/10 00:03:50;;;;;;;17.63;8.17;;;3.70;79.20;;;;;;5106641;28;20203;-66
2023/02/10 00:06:19;;;;;;;13.77;7.83;;;3.60;79.30;;;;;;5098209;27;20229;-67
2023/02/10 00:08:48;;;;;;;14.40;7.77;;;3.70;79.90;;;;;;5104250;28;20196;-66
2023/02/10 00:11:18;;;;;;;18.13;8.63;;;3.70;80.40;;;;;;5106635;28;20276;-65
2023/02/10 00:13:46;;;;;;;15.27;8.20;;;3.70;81.10;;;;;;5105386;28;20185;-66
2023/02/10 00:16:16;;;;;;;15.60;7.27;;;3.60;81.10;;;;;;5107225;28;20644;-66
2023/02/10 00:18:43;;;;;;;17.10;8.73;;;3.70;81.50;;;;;;5101343;28;20188;-66
2023/02/10 00:21:13;;;;;;;17.80;8.70;;;3.60;82.30;;;;;;5104454;28;20207;-65
2023/02/10 00:23:40;;;;;;;17.60;7.73;;;3.60;82.80;;;;;;5101479;28;20283;-66
2023/02/10 00:26:10;;;;;;;19.50;8.47;;;3.60;83.10;;;;;;5098253;28;20215;-67
2023/02/10 00:28:37;;;;;;;18.53;8.93;;;3.60;84.00;;;;;;5104405;28;20198;-67
2023/02/10 00:31:07;;;;;;;21.90;9.27;;;3.60;84.50;;;;;;5118440;27;20283;-67
2023/02/10 00:33:35;;;;;;;14.70;7.83;;;3.60;85.10;;;;;;5099760;28;20660;-67
2023/02/10 00:36:05;;;;;;;16.53;8.27;;;3.60;85.50;;;;;;5102232;28;20180;-66
2023/02/10 00:38:32;;;;;;;19.37;9.10;;;3.60;86.20;;;;;;5107058;27;20196;-68
2023/02/10 00:41:03;;;;;;;18.67;9.47;;;3.50;87.10;;;;;;5099279;28;20205;-66
2023/02/10 00:43:31;;;;;;;16.93;8.60;;;3.60;88.10;;;;;;5104431;28;20749;-67
2023/02/10 00:45:58;;;;;;;13.93;7.20;;;3.60;88.60;;;;;;5103680;28;20220;-68
2023/02/10 00:48:25;;;;;;;18.10;8.77;;;3.60;88.70;;;;;;5103515;28;20200;-67
2023/02/10 00:50:54;;;;;;;17.23;8.37;;;3.60;89.80;;;;;;5100570;28;20211;-68
2023/02/10 00:53:21;;;;;;;17.00;8.70;;;3.60;90.20;;;;;;5099096;28;20528;-68
2023/02/10 00:55:49;;;;;;;18.83;8.20;;;3.60;90.40;;;;;;5107471;28;20605;-67
2023/02/10 00:58:16;;;;;;;18.93;9.23;;;3.60;90.70;;;;;;5104418;28;20271;-67
2023/02/10 01:00:44;;;;;;;18.77;9.03;;;3.50;91.10;;;;;;5101029;28;20192;-67
2023/02/10 01:03:13;;;;;;;17.57;8.43;;;3.60;91.80;;;;;;5104862;28;20671;-68
2023/02/10 01:05:40;;;;;;;18.13;8.40;;;3.60;91.90;;;;;;5102443;28;20195;-68
2023/02/10 01:08:08;;;;;;;17.47;9.13;;;3.60;92.10;;;;;;5094634;28;20214;-68
2023/02/10 01:10:36;;;;;;;15.03;7.93;;;3.70;92.70;;;;;;5103926;28;20191;-67
2023/02/10 01:13:03;;;;;;;20.53;8.93;;;3.70;92.90;;;;;;5099468;28;20227;-67
2023/02/10 01:15:31;;;;;;;18.07;9.80;;;3.70;93.00;;;;;;5095253;28;20195;-67
2023/02/10 01:17:58;;;;;;;24.83;10.03;;;3.70;93.50;;;;;;5102560;28;20202;-67
2023/02/10 01:20:26;;;;;;;26.73;11.20;;;3.70;93.90;;;;;;5105163;28;20210;-67
2023/02/10 01:22:54;;;;;;;20.60;10.40;;;3.70;94.50;;;;;;5102414;28;20230;-67
2023/02/10 01:25:22;;;;;;;22.83;10.00;;;3.80;94.90;;;;;;5100068;28;20195;-66
2023/02/10 01:27:50;;;;;;;20.03;9.30;;;3.80;95.10;;;;;;5096933;28;20208;-67
2023/02/10 01:30:17;;;;;;;21.60;10.47;;;3.80;95.20;;;;;;5100914;28;20195;-66
2023/02/10 01:32:45;;;;;;;19.17;10.13;;;3.80;95.50;;;;;;5097112;28;20287;-67
2023/02/10 01:35:12;;;;;;;21.40;9.87;;;3.80;95.60;;;;;;5099810;27;20216;-67
2023/02/10 01:37:40;;;;;;;24.37;10.57;;;3.90;95.60;;;;;;5100460;27;20216;-67
2023/02/10 01:40:09;;;;;;;18.70;9.03;;;3.90;95.90;;;;;;5088735;28;20294;-68
2023/02/10 01:42:42;;;;;;;22.10;10.57;;;4.10;95.80;;;;;;5105123;28;20283;-66
2023/02/10 01:45:17;;;;;;;20.87;9.67;;;3.90;95.90;;;;;;5100397;28;20405;-67
2023/02/10 01:47:47;;;;;;;17.50;8.80;;;4.00;95.90;;;;;;5097289;28;20352;-67
2023/02/10 01:50:15;;;;;;;18.83;8.60;;;4.00;96.20;;;;;;5102238;28;20695;-67
2023/02/10 01:52:44;;;;;;;22.87;9.67;;;4.10;96.00;;;;;;5100613;28;20227;-66
2023/02/10 01:55:17;;;;;;;17.83;9.37;;;4.10;95.90;;;;;;5098977;28;20636;-67
2023/02/10 01:57:48;;;;;;;19.57;8.90;;;4.10;96.10;;;;;;5101442;28;20662;-67
2023/02/10 02:00:16;;;;;;;20.53;8.70;;;4.20;96.00;;;;;;5095009;28;20199;-66
2023/02/10 02:02:44;;;;;;;18.03;8.43;;;4.20;96.00;;;;;;5103165;28;20260;-66
2023/02/10 02:05:31;;;;;;;17.63;8.83;;;4.20;96.00;;;;;;5103954;28;20192;-67
2023/02/10 02:08:02;;;;;;;16.50;8.60;;;4.10;96.10;;;;;;5103341;28;20199;-66
2023/02/10 02:10:48;;;;;;;20.83;9.53;;;4.20;96.20;;;;;;5097355;28;20196;-66
2023/02/10 02:13:27;;;;;;;20.63;8.73;;;4.20;96.30;;;;;;5101120;28;20238;-67
2023/02/10 02:16:02;;;;;;;19.23;8.63;;;4.20;96.30;;;;;;5096466;28;20203;-67
2023/02/10 02:18:39;;;;;;;18.83;9.27;;;4.30;96.50;;;;;;5102601;28;20206;-67
2023/02/10 02:21:46;;;;;;;23.07;9.50;;;4.30;96.60;;;;;;5103009;28;20238;-66
2023/02/10 02:24:46;;;;;;;17.47;8.57;;;4.30;96.70;;;;;;5070244;28;20627;-66
2023/02/10 02:27:36;;;;;;;21.63;9.87;;;4.30;96.80;;;;;;5098255;28;20572;-66
2023/02/10 02:30:30;;;;;;;24.07;9.83;;;4.30;96.90;;;;;;5100995;28;20760;-67
2023/02/10 02:33:03;;;;;;;15.77;8.30;;;4.30;97.00;;;;;;5102935;28;20286;-66
2023/02/10 02:35:38;;;;;;;16.17;7.70;;;4.30;97.00;;;;;;5100020;28;20205;-66
2023/02/10 02:38:05;;;;;;;15.37;7.97;;;4.30;97.10;;;;;;5101659;28;20184;-67
2023/02/10 02:40:32;;;;;;;18.83;9.00;;;4.40;97.10;;;;;;5096548;28;20203;-67
2023/02/10 02:43:01;;;;;;;17.60;8.03;;;4.40;97.20;;;;;;5097433;28;20286;-67
2023/02/10 02:45:38;;;;;;;18.47;7.97;;;4.40;97.20;;;;;;5103788;28;20596;-67
2023/02/10 02:48:17;;;;;;;16.30;8.10;;;4.40;97.20;;;;;;5094914;28;20223;-67
2023/02/10 02:50:51;;;;;;;19.23;9.20;;;4.40;97.20;;;;;;5100798;28;20207;-66
2023/02/10 02:53:26;;;;;;;13.97;7.47;;;4.50;97.30;;;;;;5103123;28;20245;-67
2023/02/10 02:56:02;;;;;;;21.97;9.03;;;4.50;97.30;;;;;;5092617;28;20738;-67
2023/02/10 02:58:40;;;;;;;16.17;7.50;;;4.50;97.70;;;;;;5102212;28;20199;-68
2023/02/10 03:01:13;;;;;;;16.83;8.00;;;4.50;97.40;;;;;;5096877;28;20299;-68
2023/02/10 03:03:42;;;;;;;15.00;8.07;;;4.50;97.40;;;;;;5100444;28;20314;-68
2023/02/10 03:06:10;;;;;;;18.03;8.00;;;4.50;97.50;;;;;;5104363;28;20192;-67
2023/02/10 03:08:40;;;;;;;21.00;8.53;;;4.50;97.50;;;;;;5106956;28;20199;-67
2023/02/10 03:11:07;;;;;;;15.20;7.57;;;4.50;97.60;;;;;;5107322;28;20658;-67
2023/02/10 03:13:37;;;;;;;15.77;7.13;;;4.60;97.70;;;;;;5102123;28;20199;-66
2023/02/10 03:16:05;;;;;;;14.97;7.40;;;4.60;97.60;;;;;;5105214;28;20191;-67
2023/02/10 03:18:32;;;;;;;17.40;7.43;;;5.50;98.10;;;;;;5101976;28;20838;-68
2023/02/10 03:21:01;;;;;;;16.07;8.27;;;4.70;97.80;;;;;;5103583;28;20670;-67
2023/02/10 03:23:28;;;;;;;15.27;7.43;;;4.70;97.80;;;;;;5104066;28;20189;-67
2023/02/10 03:25:58;;;;;;;17.10;8.13;;;4.70;97.80;;;;;;5102642;27;20279;-66
2023/02/10 03:28:26;;;;;;;14.63;7.50;;;4.70;97.90;;;;;;5104649;28;20639;-66
2023/02/10 03:30:53;;;;;;;16.93;7.50;;;4.70;98.00;;;;;;5107986;28;20210;-66
2023/02/10 03:33:21;;;;;;;25.67;8.77;;;4.70;98.00;;;;;;5103772;28;20639;-67
2023/02/10 03:35:49;;;;;;;16.57;7.63;;;4.70;98.10;;;;;;5103413;28;20204;-66
2023/02/10 03:38:17;;;;;;;13.53;7.40;;;4.70;98.10;;;;;;5106243;28;20191;-66
2023/02/10 03:40:45;;;;;;;15.03;7.67;;;4.70;98.10;;;;;;5103056;28;20504;-66
2023/02/10 03:43:12;;;;;;;12.57;6.30;;;4.70;98.10;;;;;;5104554;28;20188;-65
2023/02/10 03:45:40;;;;;;;16.93;7.60;;;4.70;98.20;;;;;;5104598;28;20223;-66
2023/02/10 03:48:08;;;;;;;15.93;7.50;;;4.70;98.20;;;;;;5105140;28;20212;-64
2023/02/10 03:50:36;;;;;;;16.13;7.27;;;4.70;98.30;;;;;;5104359;28;20194;-66
2023/02/10 03:53:04;;;;;;;15.73;7.60;;;4.80;98.40;;;;;;5107215;28;20200;-66
2023/02/10 03:55:33;;;;;;;16.00;7.83;;;4.80;98.50;;;;;;5104392;28;20730;-67
2023/02/10 03:58:01;;;;;;;18.43;8.33;;;4.80;98.50;;;;;;5104809;28;20183;-67
2023/02/10 04:00:29;;;;;;;13.83;7.87;;;4.80;98.60;;;;;;5103884;28;20210;-66
2023/02/10 04:02:57;;;;;;;17.43;8.23;;;4.80;98.70;;;;;;5091087;28;20262;-66
2023/02/10 04:05:24;;;;;;;19.33;8.53;;;4.80;98.80;;;;;;5103817;28;20188;-66
2023/02/10 04:07:52;;;;;;;16.63;7.60;;;4.80;98.90;;;;;;5103223;28;20208;-65
2023/02/10 04:10:20;;;;;;;15.53;8.00;;;4.80;98.90;;;;;;5089903;28;20207;-66
2023/02/10 04:12:49;;;;;;;15.83;7.20;;;4.80;99.00;;;;;;5103946;28;20278;-67
2023/02/10 04:15:18;;;;;;;13.33;6.60;;;4.90;99.00;;;;;;5101693;28;20207;-67
2023/02/10 04:17:46;;;;;;;13.73;6.80;;;4.90;99.10;;;;;;5100483;28;20195;-67
2023/02/10 04:20:13;;;;;;;16.27;8.00;;;4.90;98.90;;;;;;5096725;28;20219;-67
2023/02/10 04:22:41;;;;;;;19.40;7.70;;;5.00;99.30;;;;;;5095287;28;20223;-67
2023/02/10 04:25:11;;;;;;;14.97;7.33;;;5.00;99.00;;;;;;5102334;28;20200;-66
2023/02/10 04:27:38;;;;;;;10.53;6.10;;;5.00;99.00;;;;;;5103523;28;20699;-67
2023/02/10 04:30:08;;;;;;;13.67;6.70;;;5.10;99.00;;;;;;5107399;28;20196;-66
2023/02/10 04:32:35;;;;;;;15.63;6.60;;;5.10;99.00;;;;;;5105016;28;20662;-67
2023/02/10 04:35:03;;;;;;;18.57;7.50;;;5.10;99.10;;;;;;5102469;28;20597;-67
2023/02/10 04:37:30;;;;;;;14.63;7.73;;;5.20;99.10;;;;;;5102969;28;20191;-67
2023/02/10 04:39:58;;;;;;;19.40;7.93;;;5.10;99.10;;;;;;5107655;28;20201;-67
2023/02/10 04:42:29;;;;;;;14.63;7.33;;;5.20;99.30;;;;;;5096618;28;20200;-67
2023/02/10 04:44:57;;;;;;;16.97;7.47;;;5.20;99.30;;;;;;5105131;27;20202;-66
2023/02/10 04:47:27;;;;;;;14.00;6.90;;;5.20;99.40;;;;;;5104227;28;20207;-68
2023/02/10 04:49:55;;;;;;;12.87;6.30;;;5.20;99.40;;;;;;5103232;27;20541;-67
2023/02/10 04:52:22;;;;;;;15.07;7.60;;;5.20;99.40;;;;;;5104218;28;20199;-66
2023/02/10 04:54:49;;;;;;;15.27;7.73;;;5.20;99.50;;;;;;5102112;28;20199;-66
2023/02/10 04:57:17;;;;;;;13.73;6.90;;;5.30;99.60;;;;;;5104963;28;20219;-67
2023/02/10 04:59:44;;;;;;;17.73;8.23;;;5.30;99.60;;;;;;5103109;28;20200;-67
2023/02/10 05:02:11;;;;;;;17.43;7.10;;;5.30;99.70;;;;;;5097866;28;20783;-66
2023/02/10 05:04:40;;;;;;;19.53;8.33;;;5.30;99.80;;;;;;5099933;28;20278;-66
2023/02/10 05:07:07;;;;;;;18.43;7.57;;;5.30;99.90;;;;;;5102949;28;20211;-67
2023/02/10 05:09:34;;;;;;;14.37;7.70;;;5.40;99.90;;;;;;5099164;28;20286;-67
2023/02/10 05:12:02;;;;;;;13.83;6.33;;;5.40;99.90;;;;;;5103278;27;20200;-67
2023/02/10 05:14:29;;;;;;;19.07;7.73;;;5.30;99.90;;;;;;5097045;28;20290;-67
2023/02/10 05:16:56;;;;;;;12.47;6.37;;;5.40;99.90;;;;;;5104141;28;20231;-66
2023/02/10 05:19:24;;;;;;;20.47;7.93;;;5.40;99.90;;;;;;5104212;28;20273;-66
2023/02/10 05:21:52;;;;;;;16.07;7.60;;;5.40;99.90;;;;;;5103224;28;20250;-67
2023/02/10 05:24:19;;;;;;;14.07;7.03;;;5.40;99.90;;;;;;5103063;28;20191;-66
2023/02/10 05:26:47;;;;;;;15.70;7.00;;;5.50;99.90;;;;;;5102543;28;20191;-67
2023/02/10 05:29:14;;;;;;;15.43;7.33;;;5.50;99.90;;;;;;5103531;28;20663;-66
2023/02/10 05:31:41;;;;;;;15.93;7.47;;;5.50;99.90;;;;;;5101736;28;20714;-66
2023/02/10 05:34:08;;;;;;;18.70;7.23;;;5.50;99.90;;;;;;5104275;28;20717;-66
2023/02/10 05:36:36;;;;;;;21.00;8.20;;;5.50;99.90;;;;;;5103870;28;20200;-67
2023/02/10 05:41:49;;;;;;;18.73;7.57;;;5.50;99.90;;;;;;5103154;28;20329;-65
2023/02/10 05:44:16;;;;;;;21.60;7.67;;;5.50;99.90;;;;;;5103577;28;20245;-66
2023/02/10 05:46:43;;;;;;;17.57;7.63;;;5.50;99.90;;;;;;5102778;28;20198;-67
2023/02/10 05:49:11;;;;;;;17.90;7.50;;;5.50;99.90;;;;;;5106326;28;20203;-66
2023/02/10 05:51:38;;;;;;;20.70;8.40;;;5.50;99.90;;;;;;5103566;28;20275;-66
2023/02/10 05:54:07;;;;;;;18.90;8.00;;;5.60;99.90;;;;;;5102086;28;20200;-67
2023/02/10 05:56:34;;;;;;;19.80;8.77;;;5.50;99.90;;;;;;5100858;28;20191;-66
2023/02/10 05:59:01;;;;;;;18.67;7.80;;;5.50;99.90;;;;;;5101182;28;20195;-67
2023/02/10 06:01:29;;;;;;;15.80;7.70;;;5.50;99.90;;;;;;5101995;28;20191;-66
2023/02/10 06:03:56;;;;;;;18.40;8.67;;;5.50;99.90;;;;;;5101545;28;20283;-67
2023/02/10 06:06:23;;;;;;;23.60;8.50;;;5.60;99.90;;;;;;5104109;28;20712;-67
2023/02/10 06:08:50;;;;;;;20.23;8.47;;;5.60;99.90;;;;;;5094806;28;20211;-67
2023/02/10 06:11:19;;;;;;;20.37;8.17;;;5.60;99.90;;;;;;5097653;28;20637;-67
2023/02/10 06:13:47;;;;;;;24.83;9.37;;;5.60;99.90;;;;;;5101081;28;20196;-68
2023/02/10 06:16:14;;;;;;;17.50;7.97;;;5.60;99.90;;;;;;5103885;27;20563;-67
2023/02/10 06:18:42;;;;;;;12.00;6.60;;;5.60;99.90;;;;;;5103683;28;20191;-66
2023/02/10 06:21:09;;;;;;;17.83;7.60;;;5.60;99.90;;;;;;5098725;28;20192;-67
2023/02/10 06:23:36;;;;;;;16.27;7.00;;;5.60;99.90;;;;;;5104319;28;20290;-67
2023/02/10 06:26:04;;;;;;;16.33;7.80;;;5.70;99.90;;;;;;5101512;28;20192;-67
2023/02/10 06:28:32;;;;;;;11.87;6.13;;;5.70;99.90;;;;;;5101848;28;20203;-67
2023/02/10 06:31:02;;;;;;;14.93;6.40;;;5.70;99.90;;;;;;5098429;28;20266;-67
2023/02/10 06:33:30;;;;;;;13.93;6.03;;;5.80;99.90;;;;;;5094957;28;20282;-67
2023/02/10 06:35:57;;;;;;;15.90;7.17;;;5.80;99.90;;;;;;5102878;28;20192;-68
2023/02/10 06:38:24;;;;;;;21.03;7.67;;;5.80;99.90;;;;;;5098765;28;20449;-67
2023/02/10 06:40:51;;;;;;;17.47;6.50;;;5.80;99.90;;;;;;5103658;27;20565;-68
2023/02/10 06:43:18;;;;;;;19.83;7.40;;;5.90;99.90;;;;;;5107427;28;20207;-67
2023/02/10 06:45:47;;;;;;;16.43;6.87;;;5.80;99.90;;;;;;5101703;28;20200;-67
2023/02/10 06:48:14;;;;;;;18.70;7.03;;;5.90;99.90;;;;;;5103047;28;20212;-68
2023/02/10 06:50:41;;;;;;;13.57;6.73;;;5.90;99.90;;;;;;5106840;27;20317;-67
2023/02/10 06:53:10;;;;;;;16.47;6.67;;;5.90;99.90;;;;;;5105112;28;20200;-67
2023/02/10 06:55:37;;;;;;;15.87;6.40;;;5.90;99.90;;;;;;5102267;28;20193;-67
2023/02/10 06:58:05;;;;;;;16.50;6.37;;;6.00;99.90;;;;;;5105086;28;20295;-67
2023/02/10 07:00:32;;;;;;;12.50;6.23;;;6.00;99.90;;;;;;5104364;27;20271;-68
2023/02/10 07:03:01;;;;;;;15.80;6.27;;;6.00;99.90;;;;;;5101343;28;20191;-67
2023/02/10 07:05:29;;;;;;;16.43;6.97;;;6.00;99.90;;;;;;5095536;28;20194;-68
2023/02/10 07:07:58;;;;;;;21.00;7.47;;;6.00;99.90;;;;;;5101269;28;20358;-68
2023/02/10 07:10:26;;;;;;;19.03;6.90;;;6.00;99.90;;;;;;5102624;28;20200;-68
2023/02/10 07:12:53;;;;;;;16.60;7.07;;;6.00;99.90;;;;;;5097486;28;20192;-68
2023/02/10 07:15:22;;;;;;;11.30;5.50;;;6.00;99.90;;;;;;5101028;27;21075;-68
2023/02/10 07:17:50;;;;;;;14.00;5.83;;;6.00;99.90;;;;;;5103749;28;20626;-69
2023/02/10 07:20:19;;;;;;;17.63;6.57;;;6.00;99.90;;;;;;5103516;28;20635;-68
2023/02/10 07:22:47;;;;;;;16.23;6.77;;;6.00;99.90;;;;;;5106423;28;20755;-68
2023/02/10 07:25:14;;;;;;;18.37;6.53;;;6.10;99.90;;;;;;5103883;27;20694;-69
2023/02/10 07:27:42;;;;;;;18.83;6.60;;;6.00;99.90;;;;;;5095465;27;20207;-69
2023/02/10 07:30:11;;;;;;;18.57;6.80;;;6.00;99.90;;;;;;5100199;28;20742;-69
2023/02/10 07:32:41;;;;;;;20.87;7.17;;;6.00;99.90;;;;;;5104957;27;20194;-68
2023/02/10 07:35:09;;;;;;;23.37;6.83;;;6.00;99.90;;;;;;5103203;27;20201;-69
2023/02/10 07:37:38;;;;;;;17.80;7.30;;;6.00;99.90;;;;;;5107284;28;20246;-68
2023/02/10 07:40:06;;;;;;;20.47;6.77;;;6.00;99.90;;;;;;5104773;28;20659;-69
2023/02/10 07:42:34;;;;;;;16.63;6.60;;;6.10;99.90;;;;;;5102968;28;20197;-69
2023/02/10 07:45:26;;;;;;;15.83;6.10;;;6.10;99.90;;;;;;5103110;27;20214;-69
2023/02/10 07:47:53;;;;;;;16.07;5.87;;;6.10;99.90;;;;;;5102623;27;20212;-68
2023/02/10 07:50:20;;;;;;;19.43;6.00;;;6.10;99.90;;;;;;5102195;28;20207;-68
2023/02/10 07:52:49;;;;;;;15.93;5.70;;;6.10;99.90;;;;;;5102454;28;20196;-69
2023/02/10 07:55:17;;;;;;;19.23;6.53;;;6.20;99.90;;;;;;5107639;27;20198;-68
2023/02/10 07:57:44;;;;;;;12.03;5.23;;;6.20;99.90;;;;;;5105730;28;20197;-68
2023/02/10 08:00:13;;;;;;;13.77;5.17;;;6.20;99.90;;;;;;5104478;27;20192;-68
2023/02/10 08:02:40;;;;;;;15.27;5.57;;;6.30;99.90;;;;;;5106556;27;20602;-68
2023/02/10 08:05:08;;;;;;;15.30;5.30;;;6.40;99.90;;;;;;5106695;27;20212;-68
2023/02/10 08:07:35;;;;;;;13.30;5.60;;;6.50;99.90;;;;;;5105470;27;20210;-69
2023/02/10 08:10:04;;;;;;;15.90;5.93;;;6.50;99.90;;;;;;5106962;27;20653;-69
2023/02/10 08:12:32;;;;;;;14.33;5.33;;;6.60;99.90;;;;;;5103742;28;20193;-69
2023/02/10 08:14:59;;;;;;;15.20;5.03;;;6.60;99.90;;;;;;5106996;27;20201;-68
2023/02/10 08:17:28;;;;;;;18.83;5.87;;;6.70;99.90;;;;;;5103730;28;20193;-67
2023/02/10 08:19:58;;;;;;;11.47;4.53;;;6.80;99.90;;;;;;5104757;28;20195;-68
2023/02/10 08:22:25;;;;;;;13.77;4.67;;;8.30;99.90;;;;;;5120078;27;20241;-68
2023/02/10 08:24:53;;;;;;;14.60;5.17;;;6.90;99.90;;;;;;5107003;28;20193;-68
2023/02/10 08:27:21;;;;;;;13.43;5.10;;;7.00;99.90;;;;;;5104495;28;20369;-68
2023/02/10 08:29:48;;;;;;;9.10;4.13;;;7.10;99.90;;;;;;5105446;28;20646;-68
2023/02/10 08:32:18;;;;;;;18.13;5.13;;;7.20;99.90;;;;;;5104307;27;20193;-68
2023/02/10 08:34:46;;;;;;;19.33;5.90;;;7.20;99.90;;;;;;5104719;28;20202;-69
2023/02/10 08:37:14;;;;;;;17.73;5.13;;;7.20;99.90;;;;;;5101135;27;20245;-68
2023/02/10 08:39:41;;;;;;;12.90;5.40;;;7.20;99.90;;;;;;5104235;28;20280;-69
2023/02/10 08:42:08;;;;;;;18.10;5.87;;;7.20;99.90;;;;;;5104954;28;20198;-68
2023/02/10 08:44:37;;;;;;;20.20;6.53;;;7.20;99.90;;;;;;5104386;27;20192;-69
2023/02/10 08:47:05;;;;;;;14.77;5.47;;;7.20;99.90;;;;;;5105233;27;21021;-68
2023/02/10 08:49:33;;;;;;;13.40;4.97;;;7.20;99.90;;;;;;5103520;28;20225;-68
2023/02/10 08:52:00;;;;;;;12.57;4.83;;;7.20;99.90;;;;;;5103098;27;20559;-68
2023/02/10 08:54:27;;;;;;;13.43;5.33;;;7.30;99.90;;;;;;5091991;27;20190;-69
2023/02/10 08:56:55;;;;;;;17.77;5.73;;;7.20;99.90;;;;;;5099196;27;20192;-69
2023/02/10 08:59:23;;;;;;;18.50;6.40;;;7.30;99.90;;;;;;5103304;27;20205;-69
2023/02/10 09:01:51;;;;;;;14.63;5.30;;;7.30;99.90;;;;;;5101165;28;20210;-69
2023/02/10 09:04:18;;;;;;;13.57;5.20;;;7.40;99.90;;;;;;5101699;27;20206;-70
2023/02/10 09:06:46;;;;;;;14.23;5.13;;;7.50;99.90;;;;;;5100993;28;20194;-70
2023/02/10 09:09:19;;;;;;;20.73;5.50;;;7.60;99.90;;;;;;5103179;28;20206;-70
2023/02/10 09:11:47;;;;;;;17.90;5.80;;;7.70;99.70;;;;;;5103267;27;20187;-70
2023/02/10 09:14:14;;;;;;;14.30;4.73;;;7.70;99.40;;;;;;5093089;28;20347;-70
2023/02/10 09:16:45;;;;;;;13.93;4.97;;;7.80;99.40;;;;;;5100280;28;20192;-70
2023/02/10 09:19:13;;;;;;;9.83;4.23;;;7.90;99.10;;;;;;5102274;27;20194;-70
2023/02/10 09:21:40;;;;;;;16.13;5.10;;;8.00;99.40;;;;;;5101625;27;20231;-69
2023/02/10 09:24:08;;;;;;;12.93;4.33;;;8.00;98.80;;;;;;5097837;28;20673;-69
2023/02/10 09:26:35;;;;;;;14.63;5.33;;;8.00;98.80;;;;;;5094637;27;20187;-70
2023/02/10 09:29:04;;;;;;;15.20;4.73;;;8.00;98.70;;;;;;5101267;28;20208;-70
2023/02/10 09:31:34;;;;;;;17.60;4.93;;;7.90;98.70;;;;;;5095830;28;20200;-69
2023/02/10 09:34:01;;;;;;;13.97;4.87;;;7.80;98.80;;;;;;5100683;28;20204;-69
2023/02/10 09:36:30;;;;;;;19.47;5.13;;;7.80;98.90;;;;;;5104075;28;20653;-69
2023/02/10 09:38:57;;;;;;;9.80;4.43;;;7.70;99.10;;;;;;5098801;28;20189;-70
2023/02/10 09:41:42;;;;;;;17.83;5.40;;;7.70;99.10;;;;;;5095729;28;20199;-69
2023/02/10 09:44:16;;;;;;;13.27;5.33;;;7.70;99.20;;;;;;5104009;28;20210;-69
2023/02/10 09:47:05;;;;;;;18.00;5.47;;;7.60;99.20;;;;;;5101458;28;20194;-70
2023/02/10 09:50:13;;;;;;;18.47;5.53;;;7.60;99.30;;;;;;5101134;27;20298;-70
2023/02/10 09:52:55;;;;;;;18.03;5.27;;;7.60;99.30;;;;;;5094312;28;20210;-70
2023/02/10 09:55:28;;;;;;;18.43;4.93;;;7.60;99.40;;;;;;5102321;28;20196;-70
2023/02/10 09:57:59;;;;;;;19.57;6.23;;;7.50;99.40;;;;;;5102849;28;20192;-70
2023/02/10 10:00:30;;;;;;;19.93;5.73;;;7.50;99.50;;;;;;5103794;27;20286;-70
2023/02/10 10:03:00;;;;;;;22.43;7.03;;;7.50;99.50;;;;;;5101185;28;20195;-70
2023/02/10 10:05:42;;;;;;;19.57;6.00;;;7.50;99.70;;;;;;5104329;28;20303;-70
2023/02/10 10:08:22;;;;;;;18.53;6.03;;;7.90;99.80;;;;;;5103440;28;20252;-69
2023/02/10 10:10:51;;;;;;;21.27;6.17;;;8.30;99.40;;;;;;5103415;28;20193;-69
2023/02/10 10:13:24;;;;;;;20.20;6.17;;;8.40;98.80;;;;;;5102562;28;20199;-69
2023/02/10 10:16:08;;;;;;;21.50;6.17;;;8.30;98.60;;;;;;5099571;28;20272;-69
2023/02/10 10:18:59;;;;;;;18.30;6.37;;;8.30;98.60;;;;;;5101954;28;20195;-69
2023/02/10 10:21:32;;;;;;;19.67;5.83;;;8.20;98.60;;;;;;5095289;28;20276;-69
2023/02/10 10:24:21;;;;;;;11.57;5.10;;;8.00;98.60;;;;;;5105234;27;20667;-69
2023/02/10 10:26:57;;;;;;;16.83;5.27;;;8.00;98.80;;;;;;5095106;28;20518;-69
2023/02/10 10:29:33;;;;;;;21.53;5.90;;;7.90;98.90;;;;;;5090870;28;20872;-70
2023/02/10 10:32:14;;;;;;;22.23;6.67;;;7.80;98.90;;;;;;5104983;28;20197;-70
2023/02/10 10:34:46;;;;;;;15.50;5.77;;;7.80;99.00;;;;;;5096795;28;20558;-69
2023/02/10 10:37:18;;;;;;;14.53;5.23;;;7.80;99.50;;;;;;5102301;28;20192;-69
2023/02/10 10:39:52;;;;;;;12.27;5.10;;;7.70;99.10;;;;;;5100080;28;20308;-69
2023/02/10 10:42:24;;;;;;;13.63;5.07;;;7.80;99.20;;;;;;5100316;28;20201;-70
2023/02/10 10:44:56;;;;;;;13.13;5.27;;;7.80;99.30;;;;;;5096173;28;20195;-69
2023/02/10 10:47:36;;;;;;;13.13;5.17;;;7.80;99.30;;;;;;5100724;28;20185;-69
2023/02/10 10:50:07;;;;;;;11.50;5.17;;;7.80;99.30;;;;;;5103551;28;20621;-69
2023/02/10 10:52:37;;;;;;;18.40;5.30;;;7.80;99.30;;;;;;5099029;28;20199;-69
2023/02/10 10:55:13;;;;;;;8.80;4.37;;;7.80;99.30;;;;;;5090770;28;20191;-70
2023/02/10 10:57:41;;;;;;;15.63;5.13;;;7.80;99.30;;;;;;5097943;28;20257;-69
2023/02/10 11:00:21;;;;;;;9.60;4.10;;;7.70;99.30;;;;;;5100482;28;20584;-69
2023/02/10 11:02:58;;;;;;;15.57;4.30;;;7.70;99.30;;;;;;5096166;28;20547;-68
2023/02/10 11:05:30;;;;;;;11.47;3.93;;;7.60;99.30;;;;;;5101840;28;20205;-69
2023/02/10 11:07:58;;;;;;;5.73;2.90;;;7.50;99.40;;;;;;5100737;28;20192;-68
2023/02/10 11:10:33;;;;;;;9.67;3.00;;;7.50;99.50;;;;;;5101692;28;20875;-69
2023/02/10 11:13:05;;;;;;;6.97;3.10;;;7.50;99.50;;;;;;5095405;28;20199;-69
2023/02/10 11:15:38;;;;;;;7.63;2.77;;;7.50;99.50;;;;;;5096364;28;20195;-69
2023/02/10 11:18:08;;;;;;;7.37;2.33;;;7.40;99.40;;;;;;5098572;28;20663;-69
2023/02/10 11:20:36;;;;;;;7.13;2.70;;;7.40;99.30;;;;;;5092720;28;20602;-68
2023/02/10 11:23:13;;;;;;;6.70;2.33;;;7.40;99.40;;;;;;5099832;28;20651;-69
2023/02/10 11:25:47;;;;;;;8.17;2.30;;;7.50;99.50;;;;;;5099036;28;20195;-68
2023/02/10 11:28:21;;;;;;;7.70;2.07;;;7.50;99.40;;;;;;5103177;27;20225;-68
2023/02/10 11:30:55;;;;;;;4.83;1.90;;;7.60;99.30;;;;;;5103290;28;20210;-69
2023/02/10 11:33:24;;;;;;;8.90;2.50;;;7.70;99.30;;;;;;5093998;27;20200;-68
2023/02/10 11:35:54;;;;;;;6.03;2.30;;;8.10;99.00;;;;;;5089841;28;20200;-69
2023/02/10 11:38:24;;;;;;;13.13;3.27;;;8.20;98.60;;;;;;5103636;27;20204;-69
2023/02/10 11:40:55;;;;;;;12.30;3.03;;;8.40;98.00;;;;;;5097493;27;20338;-69
2023/02/10 11:43:31;;;;;;;11.63;2.43;;;7.80;97.40;;;;;;5103679;27;20285;-69
2023/02/10 11:46:00;;;;;;;9.10;2.93;;;8.70;97.40;;;;;;5103457;28;20235;-68
2023/02/10 11:48:31;;;;;;;11.80;3.23;;;8.70;97.40;;;;;;5104139;28;20192;-69
2023/02/10 11:51:03;;;;;;;7.17;2.53;;;8.80;97.50;;;;;;5094943;28;20351;-69
2023/02/10 11:53:34;;;;;;;11.00;3.10;;;8.80;97.00;;;;;;5098351;27;20223;-70
2023/02/10 11:56:07;;;;;;;11.70;2.87;;;8.70;96.90;;;;;;5104842;27;20198;-70
2023/02/10 11:58:59;;;;;;;5.43;2.03;;;8.60;97.10;;;;;;5096088;27;20271;-70
2023/02/10 12:01:49;;;;;;;8.07;2.60;;;8.70;97.40;;;;;;5102911;27;20196;-70
2023/02/10 12:04:45;;;;;;;9.10;2.27;;;8.80;97.30;;;;;;5103978;28;20278;-70
2023/02/10 12:07:21;;;;;;;7.80;2.33;;;8.80;97.30;;;;;;5074571;28;20236;-70
2023/02/10 12:09:56;;;;;;;5.30;2.40;;;8.90;97.30;;;;;;5106553;27;20200;-69
2023/02/10 12:12:34;;;;;;;8.20;2.40;;;8.90;97.30;;;;;;5100328;28;20195;-69
2023/02/10 12:15:13;;;;;;;10.00;3.03;;;9.00;97.20;;;;;;5098536;27;20197;-70
2023/02/10 12:17:49;;;;;;;6.43;2.20;;;9.00;97.10;;;;;;5104072;28;20950;-69
2023/02/10 12:20:34;;;;;;;7.43;2.13;;;9.00;97.00;;;;;;5121248;27;20215;-69
2023/02/10 12:23:34;;;;;;;14.27;3.37;;;9.00;97.00;;;;;;5107431;28;20556;-69
2023/02/10 12:26:09;;;;;;;10.40;2.70;;;9.10;96.90;;;;;;5104210;27;20536;-69
2023/02/10 12:28:48;;;;;;;18.83;2.77;;;9.20;96.60;;;;;;5104974;27;20191;-69
2023/02/10 12:31:24;;;;;;;8.17;2.30;;;9.30;96.30;;;;;;5103732;28;20257;-70
2023/02/10 12:34:14;;;;;;;11.93;3.10;;;9.20;95.60;;;;;;5105627;27;20236;-68
2023/02/10 12:36:50;;;;;;;12.53;2.80;;;9.30;95.20;;;;;;5102712;27;20192;-68
2023/02/10 12:39:23;;;;;;;12.03;2.70;;;9.30;95.00;;;;;;5105351;27;20217;-68
2023/02/10 12:42:00;;;;;;;13.63;3.33;;;9.20;95.00;;;;;;5101989;28;20598;-69
2023/02/10 12:44:44;;;;;;;8.97;2.50;;;9.10;95.10;;;;;;5103176;27;20269;-69
2023/02/10 12:47:29;;;;;;;9.13;3.03;;;9.20;95.30;;;;;;5102919;27;20196;-69
2023/02/10 12:50:08;;;;;;;9.33;2.63;;;9.30;95.30;;;;;;5099416;28;20220;-69
2023/02/10 12:52:41;;;;;;;6.50;2.50;;;9.20;94.80;;;;;;5100037;27;20266;-69
2023/02/10 12:55:17;;;;;;;12.77;3.20;;;9.20;95.00;;;;;;5100700;27;20294;-69
2023/02/10 12:57:48;;;;;;;7.23;2.60;;;9.10;95.00;;;;;;5104437;28;20240;-70
2023/02/10 13:00:25;;;;;;;13.20;3.43;;;9.00;95.10;;;;;;5106365;27;20199;-71
2023/02/10 13:02:57;;;;;;;11.00;3.00;;;8.90;95.20;;;;;;5099747;28;20761;-70
2023/02/10 13:05:30;;;;;;;9.13;2.50;;;8.80;95.20;;;;;;5098188;27;20200;-70
2023/02/10 13:08:00;;;;;;;9.83;2.57;;;8.70;95.30;;;;;;5103248;28;20218;-70
2023/02/10 13:10:33;;;;;;;9.30;2.60;;;8.60;95.40;;;;;;5120195;27;20213;-70